• Join FlightAware (Why Join?)
  • Login
  • US Flag 
05:10PM EDT


 

Airport Tracker/Info


-or-


 

Live Flight TrackerFlight Track Log ✈ SWA315 ✈ 15-Apr-2013 ✈ KOAK - KDEN

Flight Track Log - Related Links

Times and Time Zones

All times are in EDT time to prevent confusion due to time zone crossing. See the SWA315 flight status page for this flight to view local times or setup timezone preferences in your user account.

Time Position Orientation Groundspeed Altitude Reporting Facility
EDT Latitude Longitude Course Direction KTS MPH feet Rate Location/Type
09:27AM 37.7333 -122.2833 82° East 181 208 2,300  Level Northern Cal TRACON
09:28AM 37.7667 -122.3333 310° West 204 235 5,300 2,640 Climbing Northern Cal TRACON
09:29AM 37.7758 -122.3344 355° North 211 243 5,600 3,120 Climbing Oakland Center
09:30AM 37.8319 -122.3453 351° North 231 266 9,300 2,880 Climbing Oakland Center
09:31AM 37.8589 -122.2492 70° East 296 341 11,500 2,820 Climbing Oakland Center
09:32AM 37.8847 -122.0956 78° East 367 422 15,000 3,240 Climbing Oakland Center
09:33AM 37.9893 -121.7463 82° East  Level FlightAware Approximate
09:33AM 37.9089 -121.9608 77° East 388 447 18,100  Level Oakland Center
09:34AM 37.9350 -121.8175 77° East 410 472 20,700 2,400 Climbing Oakland Center
09:35AM 37.9608 -121.6656 78° East 435 501 23,000 2,280 Climbing Oakland Center
09:36AM 37.9875 -121.5047 78° East 458 527 25,300 1,920 Climbing Oakland Center
09:37AM 38.0147 -121.3544 77° East 471 542 27,000 1,680 Climbing Oakland Center
09:38AM 38.0439 -121.1833 78° East 488 562 28,800 1,680 Climbing Oakland Center
09:39AM 38.0744 -121.0072 78° East 506 582 30,400 1,680 Climbing Oakland Center
09:40AM 38.1256 -120.7981 73° East 519 597 32,300 1,800 Climbing Oakland Center
09:41AM 38.1669 -120.6211 73° East 525 604 34,100 1,620 Climbing Oakland Center
09:42AM 38.2092 -120.4433 73° East 526 605 35,700 1,320 Climbing Oakland Center
09:43AM 38.2508 -120.2672 73° East 525 604 36,800 1,380 Climbing Oakland Center
09:44AM 38.2950 -120.0864 73° East 535 616 38,500 1,080 Climbing Oakland Center
09:45AM 38.3336 -119.9183 74° East 502 578 39,000 240 Climbing Oakland Center
09:46AM 38.3722 -119.7500 74° East 496 571 39,000  Level Oakland Center
09:47AM 38.4147 -119.5608 74° East 499 574 39,000  Level Oakland Center
09:48AM 38.4533 -119.3936 74° East 504 580 39,000  Level Oakland Center
09:49AM 38.4925 -119.2217 74° East 507 583 39,000  Level Oakland Center
09:50AM 38.5169 -119.0428 80° East 514 592 39,000  Level Oakland Center
09:51AM 38.5347 -118.8625 83° East 516 594 39,000  Level Oakland Center
09:52AM 38.5528 -118.6819 83° East 515 593 39,000  Level Oakland Center
09:53AM 38.5700 -118.5019 83° East 515 593 39,000  Level Oakland Center
09:54AM 38.5878 -118.3217 83° East 515 593 39,000  Level Oakland Center
09:55AM 38.6047 -118.1425 83° East 513 590 39,000  Level Oakland Center
09:56AM 38.6228 -117.9425 83° East 512 589 39,000  Level Oakland Center
09:57AM 38.6386 -117.7597 84° East 515 593 39,000  Level Oakland Center
09:58AM 38.6556 -117.5753 83° East 518 596 39,000  Level Oakland Center
09:59AM 38.6708 -117.3919 84° East 515 593 39,000 -540 Level Oakland Center
10:00AM 38.6919 -117.2069 82° East 519 597 38,000 -1,020 Descending Oakland Center
10:01AM 38.7200 -117.0256 79° East 517 595 37,000 -960 Descending Oakland Center
10:02AM 38.7486 -116.8400 79° East 525 604 36,100 -900 Descending Oakland Center
10:03AM 38.7756 -116.6503 80° East 535 616 35,200 -960 Descending Oakland Center
10:04AM 38.8033 -116.4564 80° East 548 631 34,200 -1,020 Descending Oakland Center
10:05AM 38.8308 -116.2633 80° East 549 632 33,200 -960 Descending Oakland Center
10:05AM 38.8353 -116.2267 81° East 546 628 33,000 -180 Descending Salt Lake Center
10:06AM 38.8622 -116.0342 80° East 546 628 33,000  Level Salt Lake Center
10:07AM 38.8892 -115.8431 80° East 544 626 33,000  Level Salt Lake Center
10:08AM 38.9144 -115.6536 80° East 539 620 33,000  Level Salt Lake Center
10:09AM 38.9461 -115.4261 80° East 539 620 33,000  Level Salt Lake Center
10:11AM 38.9686 -115.2631 80° East 543 625 33,000  Level Salt Lake Center
10:12AM 38.9983 -115.0350 80° East 541 623 33,000  Level Salt Lake Center
10:13AM 39.0236 -114.8436 80° East 542 624 33,000  Level Salt Lake Center
10:14AM 39.0486 -114.6519 80° East 544 626 33,000  Level Salt Lake Center
10:15AM 39.0733 -114.4611 80° East 543 625 33,000  Level Salt Lake Center
10:16AM 39.0969 -114.2656 81° East 550 633 33,000  Level Salt Lake Center
10:17AM 39.1211 -114.0739 81° East 545 627 33,000  Level Salt Lake Center
10:18AM 39.1447 -113.8792 81° East 548 631 33,000  Level Salt Lake Center
10:19AM 39.1686 -113.6831 81° East 553 636 33,000  Level Salt Lake Center
10:20AM 39.1917 -113.4878 81° East 552 635 33,000  Level Salt Lake Center
10:21AM 39.2139 -113.2914 82° East 553 636 33,000  Level Salt Lake Center
10:22AM 39.2367 -113.0950 81° East 553 636 33,000  Level Salt Lake Center
10:23AM 39.2592 -112.8975 82° East 556 640 33,000  Level Salt Lake Center
10:24AM 39.2850 -112.6633 82° East 551 634 33,000  Level Salt Lake Center
10:25AM 39.3042 -112.5000 81° East 548 631 33,000  Level Salt Lake Center
10:26AM 39.3467 -112.2728 76° East 547 629 33,000  Level Salt Lake Center
10:27AM 39.3819 -112.0822 76° East 547 629 33,000  Level Salt Lake Center
10:28AM 39.4172 -111.8917 76° East 548 631 33,000  Level Salt Lake Center
10:29AM 39.4519 -111.7003 77° East 549 632 33,000  Level Salt Lake Center
10:30AM 39.4867 -111.5086 77° East 551 634 33,000  Level Salt Lake Center
10:31AM 39.5197 -111.3161 77° East 551 634 33,000  Level Salt Lake Center
10:32AM 39.5542 -111.1072 78° East 548 631 33,000  Level Salt Lake Center
10:33AM 39.5864 -110.9253 77° East 544 626 33,000  Level Salt Lake Center
10:34AM 39.6272 -110.7161 76° East 539 620 33,000  Level Salt Lake Center
10:35AM 39.6572 -110.5353 78° East 536 617 33,000  Level Salt Lake Center
10:36AM 39.6917 -110.3239 78° East 535 616 33,000  Level Salt Lake Center
10:37AM 39.7233 -110.1428 77° East 538 619 33,000  Level Salt Lake Center
10:38AM 39.7519 -109.9597 78° East 539 620 33,000  Level Salt Lake Center
10:39AM 39.7878 -109.7456 78° East 542 624 33,000  Level Salt Lake Center
10:40AM 39.8069 -109.6214 79° East 542 624 33,000  Level Denver Center
10:41AM 39.8358 -109.4378 78° East 541 623 33,000  Level Denver Center
10:41AM 39.8494 -109.3475 79° East 541 623 33,000  Level Salt Lake Center
10:42AM 39.8756 -109.1619 80° East 542 624 33,000  Level Salt Lake Center
10:43AM 39.9022 -108.9764 79° East 542 624 33,000  Level Salt Lake Center
10:44AM 39.9222 -108.8203 80° East 538 619 33,000  Level Denver Center
10:45AM 39.9508 -108.6358 79° East 537 618 33,000  Level Denver Center
10:46AM 39.9786 -108.4478 79° East 543 625 33,000  Level Denver Center
10:47AM 40.0089 -108.2275 80° East 548 631 33,000  Level Denver Center
10:48AM 40.0336 -108.0406 80° East 545 627 33,000  Level Denver Center
10:49AM 40.0636 -107.8214 80° East 548 631 33,000  Level Denver Center
10:50AM 40.0886 -107.6342 80° East 547 629 33,000  Level Denver Center
10:51AM 40.1167 -107.4150 80° East 548 631 33,000  Level Denver Center
10:52AM 40.1414 -107.2261 80° East 551 634 33,000  Level Denver Center
10:53AM 40.1692 -107.0067 81° East 550 633 33,000  Level Denver Center
10:54AM 40.1931 -106.8172 81° East 551 634 33,000  Level Denver Center
10:55AM 40.2183 -106.6256 80° East 550 633 33,000 -60 Level Denver Center
10:56AM 40.2447 -106.4083 81° East 550 633 32,900 -1,440 Descending Denver Center
10:57AM 40.2669 -106.2172 81° East 554 638 30,100 -2,640 Descending Denver Center
10:58AM 40.2900 -106.0036 82° East 544 626 27,500 -2,040 Descending Denver Center
10:59AM 40.3592 -105.8400 61° Northeast 505 581 25,900 -1,440 Descending Denver Center
11:00AM 40.4406 -105.6992 53° Northeast 482 555 24,600 -1,800 Descending Denver Center
11:01AM 40.4753 -105.5567 72° East 429 494 22,300 -2,220 Descending Denver Center
11:03AM 40.3833 -105.4547 140° Southeast 380 437 20,100 -1,140 Descending Denver Center
11:04AM 40.3069 -105.3597 137° Southeast 385 443 20,000 -780 Descending Denver Center
11:05AM 40.2347 -105.2453 130° Southeast 374 430 18,500 -1,440 Descending Denver Center
11:06AM 40.1689 -105.1403 129° Southeast 371 427 17,000 -1,080 Descending Denver Center
11:07AM 40.1000 -105.0356 131° Southeast 380 437 16,300 -1,140 Descending Denver Center
11:08AM 40.0283 -104.9244 130° Southeast 374 430 14,700 -1,500 Descending Denver Center
11:09AM 39.9683 -104.8303 130° Southeast 342 394 13,300 -1,140 Descending Denver Center
11:10AM 39.8939 -104.8053 166° South 256 295 12,400 -1,020 Descending Denver Center
11:11AM 39.8275 -104.8075 181° South 240 276 11,300 -660 Descending Denver Center
11:12AM 39.7631 -104.8094 181° South 216 249 11,100 -480 Descending Denver Center
11:13AM 39.7064 -104.8114 182° South 205 236 10,400 -540 Descending Denver Center
11:14AM 39.6458 -104.8128 181° South 204 235 10,100 -180 Descending Denver Center
11:15AM 39.5864 -104.8144 181° South 214 246 10,100  Level Denver Center
11:16AM 39.5222 -104.8167 182° South 216 249 10,100 -60 Level Denver Center
11:17AM 39.4814 -104.7778 144° Southeast 213 245 10,000  Descending Denver Center
11:18AM 39.4872 -104.7044 84° East 220 253 10,100  Climbing Denver Center
11:19AM 39.5514 -104.6903 10° North 222 255 10,100 -180 Level Denver Center
11:20AM 39.6136 -104.6908 360° North 223 257 9,800 -540 Descending Denver Center
11:21AM 39.6800 -104.6894 North 222 255 9,100 -1,020 Descending Denver Center
11:22AM 39.7408 -104.6889 360° North 217 250 7,800 -1,200 Descending Denver Center
11:23AM 39.8008 -104.6883 360° North 201 231 6,700 -1,020 Descending Denver Center
11:24AM 39.8439 -104.6875 North 158 182 5,800 -720 Descending Denver Center
11:25AM 39.8789 -104.6878 360° North 140 161 5,300 -540 Descending Denver Center
11:27AM 39.8617 -104.6732 180° South  Level Estimated